Ansonia, Ohio
Current Conditions -  °F | °C
As of 1:35 AM on Friday 28 Nov 2014 (Local Time) from KVES Reporting Station
Light Snow Light Snow  
Wind Chill: 15°   Ceiling: 1700
Heat Index: 25°   Visibility: 10mi
Dew Point: 23°   Wind: 9mph
Humidity: 93%   Direction: 280°W
Pressure: 30.34"   Gusts: NA
Location:  40.21°N, 84.64°W
Report Text: KVES 280635Z AUTO 28008KT 10SM -SN OVC017 M04/M05 A3034 RMK AO2
Loading
Personal Weather Stations






























Interactive Weather Map New forecast layout! Learn more

10-Day Weather Forecast

Advertisements
Track Severe Weather on mobile